Time;durP1;ratioP1;P1;durP2;ratioP2;P2;SDS_P1;SDS_P2;PMS_P1;PMS_P2;Temp;Humidity;BMP_temperature;BMP_pressure;BME280_temperature;BME280_humidity;BME280_pressure;Samples;Min_cycle;Max_cycle;Signal;HPM_P1;HPM_P2
2023/03/04 00:01:44;;;;;;;57.40;27.67;;;;;;;;;;5152980;27;20031;-72
2023/03/04 00:04:10;;;;;;;60.05;27.98;;;;;;;;;;5151402;27;20372;-71
2023/03/04 00:06:36;;;;;;;60.00;27.73;;;;;;;;;;5154218;27;20034;-71
2023/03/04 00:09:03;;;;;;;62.92;29.08;;;;;;;;;;5137332;27;20034;-73
2023/03/04 00:11:30;;;;;;;57.50;27.60;;;;;;;;;;5136518;27;20456;-71
2023/03/04 00:13:56;;;;;;;57.08;27.75;;;;;;;;;;5151452;27;20110;-71
2023/03/04 00:16:26;;;;;;;54.55;26.75;;;;;;;;;;5147575;27;20068;-71
2023/03/04 00:18:51;;;;;;;52.25;26.50;;;;;;;;;;5153527;27;20047;-71
2023/03/04 00:21:17;;;;;;;61.28;28.10;;;;;;;;;;5146583;27;20058;-72
2023/03/04 00:23:43;;;;;;;54.25;27.30;;;;;;;;;;5134667;27;20027;-71
2023/03/04 00:26:09;;;;;;;58.15;28.15;;;;;;;;;;5133407;27;20422;-72
2023/03/04 00:28:36;;;;;;;58.13;26.08;;;;;;;;;;5144516;27;20019;-71
2023/03/04 00:31:02;;;;;;;53.83;26.85;;;;;;;;;;5144956;27;20079;-73
2023/03/04 00:33:28;;;;;;;59.80;26.63;;;;;;;;;;5144303;27;20031;-72
2023/03/04 00:35:54;;;;;;;60.95;27.02;;;;;;;;;;5133025;27;20043;-73
2023/03/04 00:38:20;;;;;;;59.75;28.67;;;;;;;;;;5132655;27;20022;-72
2023/03/04 00:40:46;;;;;;;58.65;27.67;;;;;;;;;;5132756;27;20027;-71
2023/03/04 00:43:11;;;;;;;60.75;28.05;;;;;;;;;;5133687;27;20057;-71
2023/03/04 00:45:37;;;;;;;59.67;28.90;;;;;;;;;;5132192;27;20051;-71
2023/03/04 00:48:03;;;;;;;55.45;25.15;;;;;;;;;;5140285;27;20565;-74
2023/03/04 00:50:29;;;;;;;49.88;24.90;;;;;;;;;;5142498;27;20019;-71
2023/03/04 00:52:55;;;;;;;52.95;25.52;;;;;;;;;;5133204;27;20102;-71
2023/03/04 00:55:21;;;;;;;60.03;26.08;;;;;;;;;;5133172;27;20236;-71
2023/03/04 00:57:47;;;;;;;56.58;27.00;;;;;;;;;;5147248;27;20030;-72
2023/03/04 01:00:14;;;;;;;59.75;25.40;;;;;;;;;;5131777;27;20114;-71
2023/03/04 01:02:40;;;;;;;53.85;26.08;;;;;;;;;;5134169;27;20355;-71
2023/03/04 01:05:06;;;;;;;51.45;25.77;;;;;;;;;;5151687;27;20022;-71
2023/03/04 01:07:32;;;;;;;51.65;25.45;;;;;;;;;;5145704;27;20050;-70
2023/03/04 01:09:58;;;;;;;61.22;27.40;;;;;;;;;;5143844;27;20055;-72
2023/03/04 01:12:24;;;;;;;54.67;26.65;;;;;;;;;;5141448;27;20449;-72
2023/03/04 01:14:52;;;;;;;60.30;27.00;;;;;;;;;;5140483;27;20095;-72
2023/03/04 01:18:00;;;;;;;55.45;28.00;;;;;;;;;;5141117;27;20106;-71
2023/03/04 01:20:28;;;;;;;55.33;26.50;;;;;;;;;;5144702;27;20068;-71
2023/03/04 01:23:03;;;;;;;57.92;26.00;;;;;;;;;;5139153;27;20109;-71
2023/03/04 01:25:30;;;;;;;55.75;25.83;;;;;;;;;;5143902;27;20091;-71
2023/03/04 01:27:57;;;;;;;58.60;27.05;;;;;;;;;;5143736;27;20030;-71
2023/03/04 01:30:24;;;;;;;56.92;26.75;;;;;;;;;;5141850;27;20028;-71
2023/03/04 01:32:49;;;;;;;58.72;25.80;;;-0.30;99.90;;;;;;5144046;27;20027;-70
2023/03/04 01:35:15;;;;;;;63.55;27.67;;;-0.40;99.90;;;;;;5144232;27;20033;-71
2023/03/04 01:37:41;;;;;;;63.15;26.38;;;-0.40;99.90;;;;;;5138336;27;20106;-71
2023/03/04 01:40:07;;;;;;;57.33;27.02;;;-0.50;99.90;;;;;;5135233;27;20031;-71
2023/03/04 01:42:34;;;;;;;58.53;27.00;;;-0.50;99.90;;;;;;5138151;27;20039;-71
2023/03/04 01:45:01;;;;;;;59.92;27.42;;;-0.70;99.90;;;;;;5142192;27;20141;-72
2023/03/04 01:47:29;;;;;;;57.13;27.20;;;-0.70;99.90;;;;;;5143794;27;20054;-71
2023/03/04 01:49:56;;;;;;;57.25;26.27;;;-0.80;99.90;;;;;;5150196;27;20026;-71
2023/03/04 01:52:22;;;;;;;53.00;25.42;;;-0.80;99.90;;;;;;5151535;27;20026;-71
2023/03/04 01:54:48;;;;;;;59.17;26.75;;;-0.80;99.90;;;;;;5142348;27;20071;-71
2023/03/04 01:57:22;;;;;;;57.65;25.83;;;;;;;;;;5148617;27;20034;-71
2023/03/04 02:00:16;;;;;;;62.58;26.80;;;-0.90;99.90;;;;;;5150857;27;20019;-71
2023/03/04 02:02:42;;;;;;;51.45;25.80;;;-0.90;99.90;;;;;;5151559;27;20118;-71
2023/03/04 02:05:08;;;;;;;60.30;26.70;;;-1.00;99.90;;;;;;5150414;27;20106;-71
2023/03/04 02:07:34;;;;;;;59.13;26.35;;;-1.00;99.90;;;;;;5146875;27;20031;-71
2023/03/04 02:09:59;;;;;;;59.05;27.73;;;-1.10;99.90;;;;;;5132636;27;20073;-71
2023/03/04 02:12:25;;;;;;;60.03;27.52;;;-1.10;99.90;;;;;;5138025;27;20042;-72
2023/03/04 02:14:51;;;;;;;62.65;27.20;;;-1.10;99.90;;;;;;5145142;27;20031;-72
2023/03/04 02:17:16;;;;;;;62.80;28.30;;;-1.10;99.90;;;;;;5146512;27;20428;-72
2023/03/04 02:20:29;;;;;;;55.28;25.40;;;-1.10;99.90;;;;;;5150453;27;20448;-72
2023/03/04 02:23:09;;;;;;;57.17;25.10;;;-1.20;99.90;;;;;;5048922;28;20029;-72
2023/03/04 02:26:12;;;;;;;65.20;29.10;;;-1.20;99.90;;;;;;5049137;28;20044;-72
2023/03/04 02:28:37;;;;;;;56.33;25.33;;;-1.20;99.90;;;;;;5029990;28;20079;-72
2023/03/04 02:31:03;;;;;;;61.60;27.17;;;-1.10;99.90;;;;;;5050572;28;20028;-73
2023/03/04 02:33:29;;;;;;;54.25;25.13;;;-1.20;99.90;;;;;;5061623;28;20037;-72
2023/03/04 02:35:55;;;;;;;55.97;26.90;;;-1.20;99.90;;;;;;5055028;28;20360;-72
2023/03/04 02:38:20;;;;;;;60.75;25.40;;;-1.30;99.90;;;;;;5065383;28;20037;-72
2023/03/04 02:40:49;;;;;;;52.70;26.52;;;-1.40;99.90;;;;;;5067045;28;20086;-72
2023/03/04 02:43:15;;;;;;;61.72;28.08;;;-1.30;99.90;;;;;;5061182;28;20167;-72
2023/03/04 02:45:45;;;;;;;57.08;26.33;;;-1.30;99.90;;;;;;5047723;28;20165;-72
2023/03/04 02:48:12;;;;;;;55.40;26.38;;;-1.30;99.90;;;;;;5048576;28;20045;-72
2023/03/04 02:50:43;;;;;;;53.45;25.50;;;-1.40;99.90;;;;;;5063823;28;20057;-73
2023/03/04 02:53:09;;;;;;;63.25;29.05;;;-1.40;99.90;;;;;;5095658;27;20066;-72
2023/03/04 02:55:35;;;;;;;59.83;26.35;;;-1.40;99.90;;;;;;5150869;27;20042;-72
2023/03/04 02:58:01;;;;;;;59.03;26.90;;;-1.40;99.90;;;;;;5136818;27;20039;-73
2023/03/04 03:00:27;;;;;;;52.97;26.92;;;-1.40;99.90;;;;;;5133978;27;20046;-72
2023/03/04 03:02:55;;;;;;;61.35;27.05;;;-1.40;99.90;;;;;;5134364;27;20029;-72
2023/03/04 03:05:22;;;;;;;68.55;28.30;;;-1.40;99.90;;;;;;5147624;27;20075;-72
2023/03/04 03:07:48;;;;;;;61.50;26.50;;;-1.30;99.90;;;;;;5140420;27;20122;-72
2023/03/04 03:10:13;;;;;;;61.60;27.38;;;-1.40;99.90;;;;;;5133590;27;20109;-72
2023/03/04 03:12:39;;;;;;;58.30;26.38;;;-1.30;99.90;;;;;;5144168;27;20019;-72
2023/03/04 03:15:05;;;;;;;54.55;25.75;;;-1.30;99.90;;;;;;5153885;27;20019;-72
2023/03/04 03:17:31;;;;;;;54.42;25.45;;;-1.30;99.90;;;;;;5154973;27;20045;-72
2023/03/04 03:19:57;;;;;;;60.80;26.33;;;-1.30;99.90;;;;;;5134622;27;20102;-72
2023/03/04 03:22:22;;;;;;;60.67;26.05;;;-1.40;99.90;;;;;;5135056;27;20030;-70
2023/03/04 03:24:48;;;;;;;58.78;25.77;;;-1.40;99.90;;;;;;5153134;27;20035;-71
2023/03/04 03:27:13;;;;;;;57.50;26.40;;;-1.50;99.90;;;;;;5152662;27;20114;-71
2023/03/04 03:29:39;;;;;;;53.40;25.23;;;-1.40;99.90;;;;;;5142243;27;20093;-71
2023/03/04 03:32:05;;;;;;;54.85;25.30;;;-1.50;99.90;;;;;;5133930;27;20397;-71
2023/03/04 03:34:30;;;;;;;54.45;24.90;;;-1.50;99.90;;;;;;5153001;27;20031;-70
2023/03/04 03:36:57;;;;;;;55.45;25.23;;;-1.50;99.90;;;;;;5153355;27;20388;-70
2023/03/04 03:39:22;;;;;;;54.83;25.80;;;-1.50;99.90;;;;;;5147353;27;20027;-71
2023/03/04 03:41:48;;;;;;;56.95;24.92;;;-1.60;99.90;;;;;;5154472;27;20029;-71
2023/03/04 03:44:14;;;;;;;57.47;25.98;;;-1.60;99.90;;;;;;5153307;27;20019;-71
2023/03/04 03:46:40;;;;;;;64.22;26.20;;;-1.60;99.90;;;;;;5153644;27;20483;-71
2023/03/04 03:49:05;;;;;;;54.28;24.77;;;-1.70;99.90;;;;;;5133270;27;20027;-72
2023/03/04 03:51:31;;;;;;;57.55;26.45;;;-1.70;99.90;;;;;;5134458;27;20031;-70
2023/03/04 03:53:57;;;;;;;57.03;25.52;;;-1.70;99.90;;;;;;5143801;27;20102;-71
2023/03/04 03:56:22;;;;;;;61.42;27.98;;;-1.70;99.90;;;;;;5146264;27;20022;-71
2023/03/04 03:58:48;;;;;;;52.13;24.70;;;-1.70;99.90;;;;;;5151384;27;20404;-71
2023/03/04 04:01:13;;;;;;;57.75;25.00;;;-1.70;99.90;;;;;;5143796;27;20388;-71
2023/03/04 04:03:39;;;;;;;63.05;26.65;;;-1.70;99.90;;;;;;5133856;27;20026;-72
2023/03/04 04:06:05;;;;;;;57.67;26.30;;;-1.80;99.90;;;;;;5132671;27;20031;-73
2023/03/04 04:08:34;;;;;;;59.47;25.30;;;;;;;;;;5149194;27;20065;-71
2023/03/04 04:10:59;;;;;;;61.47;27.67;;;-1.80;99.90;;;;;;5145876;27;20029;-70
2023/03/04 04:13:25;;;;;;;55.35;25.83;;;-1.80;99.90;;;;;;5145218;27;20031;-71
2023/03/04 04:15:52;;;;;;;56.90;25.83;;;-1.80;99.90;;;;;;5136638;27;20510;-71
2023/03/04 04:18:17;;;;;;;60.70;26.45;;;-1.90;99.90;;;;;;5134316;27;20039;-71
2023/03/04 04:20:43;;;;;;;58.38;27.23;;;-1.80;99.90;;;;;;5141756;27;20072;-71
2023/03/04 04:23:08;;;;;;;57.38;26.85;;;-1.90;99.90;;;;;;5133048;27;20110;-70
2023/03/04 04:25:34;;;;;;;58.30;27.10;;;-1.90;99.90;;;;;;5133075;27;20530;-70
2023/03/04 04:28:01;;;;;;;65.97;27.77;;;;;;;;;;5134478;27;20378;-70
2023/03/04 04:30:28;;;;;;;61.92;27.90;;;;;;;;;;5140481;27;20102;-71
2023/03/04 04:33:00;;;;;;;56.75;26.70;;;;;;;;;;5133236;27;20474;-70
2023/03/04 04:35:27;;;;;;;60.92;26.35;;;-2.10;99.90;;;;;;5127946;27;20422;-71
2023/03/04 04:37:54;;;;;;;59.63;26.25;;;;;;;;;;5135838;27;20433;-71
2023/03/04 04:40:19;;;;;;;61.42;25.98;;;-2.10;99.90;;;;;;5153009;27;20031;-71
2023/03/04 04:42:45;;;;;;;63.85;28.73;;;-2.20;99.90;;;;;;5153828;27;20484;-70
2023/03/04 04:45:10;;;;;;;58.20;27.20;;;-2.10;99.90;;;;;;5147521;27;20039;-71
2023/03/04 04:47:36;;;;;;;67.50;28.08;;;-2.20;99.90;;;;;;5151406;27;20037;-71
2023/03/04 04:50:02;;;;;;;64.18;27.63;;;-2.20;99.90;;;;;;5152856;27;20029;-72
2023/03/04 04:52:28;;;;;;;60.15;26.70;;;-2.20;99.90;;;;;;5152895;27;20480;-71
2023/03/04 04:54:53;;;;;;;62.00;27.27;;;-2.20;99.90;;;;;;5152873;27;20066;-71
2023/03/04 04:57:19;;;;;;;61.38;27.50;;;-2.30;99.90;;;;;;5152126;27;20046;-70
2023/03/04 04:59:44;;;;;;;62.22;28.65;;;-2.30;99.90;;;;;;5149150;27;20098;-70
2023/03/04 05:02:10;;;;;;;56.30;25.48;;;-2.30;99.90;;;;;;5128166;27;20484;-71
2023/03/04 05:04:35;;;;;;;70.20;28.33;;;-2.30;99.90;;;;;;5151677;27;20019;-71
2023/03/04 05:07:01;;;;;;;58.38;26.27;;;-2.40;99.90;;;;;;5148560;27;20039;-72
2023/03/04 05:09:27;;;;;;;64.85;28.35;;;-2.30;99.90;;;;;;5135234;27;20062;-70
2023/03/04 05:11:52;;;;;;;61.72;26.42;;;-2.30;99.90;;;;;;5132474;27;20027;-71
2023/03/04 05:14:18;;;;;;;63.92;27.75;;;-2.40;99.90;;;;;;5137831;27;20101;-70
2023/03/04 05:16:43;;;;;;;63.90;27.73;;;-2.40;99.90;;;;;;5152784;27;20018;-71
2023/03/04 05:19:09;;;;;;;69.25;28.05;;;-2.40;99.90;;;;;;5144122;27;20556;-71
2023/03/04 05:21:35;;;;;;;58.88;25.67;;;-2.50;99.90;;;;;;5131775;27;20031;-70
2023/03/04 05:24:00;;;;;;;68.45;29.27;;;-2.50;99.90;;;;;;5132361;27;20393;-72
2023/03/04 05:26:26;;;;;;;64.85;28.38;;;-2.50;99.90;;;;;;5131215;27;20020;-71
2023/03/04 05:28:51;;;;;;;59.80;25.80;;;-2.60;99.90;;;;;;5132211;27;20027;-71
2023/03/04 05:31:17;;;;;;;60.95;27.15;;;-2.70;99.90;;;;;;5131114;27;20079;-71
2023/03/04 05:33:43;;;;;;;57.30;24.85;;;-2.70;99.90;;;;;;5131249;27;20106;-71
2023/03/04 05:36:09;;;;;;;66.78;28.55;;;-2.80;99.90;;;;;;5137129;27;20034;-70
2023/03/04 05:38:35;;;;;;;69.70;28.27;;;-2.80;99.90;;;;;;5140015;27;20041;-71
2023/03/04 05:41:05;;;;;;;74.75;28.85;;;-2.80;99.90;;;;;;5140234;27;20452;-72
2023/03/04 05:43:33;;;;;;;65.85;27.65;;;-2.80;99.90;;;;;;5139890;27;20030;-71
2023/03/04 05:45:58;;;;;;;62.45;28.05;;;-2.70;99.90;;;;;;5142901;27;20408;-71
2023/03/04 05:48:24;;;;;;;63.03;27.65;;;-2.70;99.90;;;;;;5150784;27;20042;-71
2023/03/04 05:50:54;;;;;;;60.05;26.15;;;-2.70;99.90;;;;;;5135522;27;20112;-72
2023/03/04 05:53:20;;;;;;;58.90;26.95;;;-2.80;99.90;;;;;;5135150;27;20027;-69
2023/03/04 05:55:46;;;;;;;62.50;26.88;;;-2.80;99.90;;;;;;5151256;27;20380;-70
2023/03/04 05:58:12;;;;;;;57.47;26.92;;;-2.80;99.90;;;;;;5151197;27;20066;-70
2023/03/04 06:00:38;;;;;;;66.25;28.65;;;-2.90;99.90;;;;;;5135026;27;20035;-71
2023/03/04 06:03:04;;;;;;;68.32;27.13;;;-2.90;99.90;;;;;;5131270;27;20415;-73
2023/03/04 06:05:30;;;;;;;83.40;32.80;;;-2.90;99.90;;;;;;5132317;27;20407;-71
2023/03/04 06:07:55;;;;;;;87.10;32.63;;;-2.80;99.90;;;;;;5139729;27;20027;-70
2023/03/04 06:10:21;;;;;;;83.72;30.48;;;-2.80;99.90;;;;;;5135174;27;20195;-70
2023/03/04 06:12:47;;;;;;;92.13;32.58;;;-2.60;99.90;;;;;;5133680;27;20031;-71
2023/03/04 06:15:13;;;;;;;79.13;29.77;;;-2.40;99.90;;;;;;5132983;27;20035;-72
2023/03/04 06:17:40;;;;;;;81.72;30.65;;;-2.40;99.90;;;;;;5132780;27;20039;-71
2023/03/04 06:20:06;;;;;;;76.55;29.42;;;-2.30;99.90;;;;;;5141280;27;20053;-71
2023/03/04 06:22:33;;;;;;;79.55;30.23;;;-2.20;99.90;;;;;;5151833;27;20392;-71
2023/03/04 06:24:58;;;;;;;78.30;31.77;;;-2.10;99.90;;;;;;5140740;27;20027;-70
2023/03/04 06:27:24;;;;;;;76.43;31.02;;;-2.00;99.90;;;;;;5147041;27;20075;-70
2023/03/04 06:29:50;;;;;;;73.47;29.85;;;-2.00;99.90;;;;;;5137677;27;20027;-71
2023/03/04 06:32:15;;;;;;;74.00;30.05;;;-1.80;99.90;;;;;;5142199;27;20022;-71
2023/03/04 06:34:41;;;;;;;66.65;28.52;;;-1.70;99.90;;;;;;5140589;27;20376;-71
2023/03/04 06:37:06;;;;;;;69.60;26.75;;;-1.50;99.90;;;;;;5134548;27;20043;-72
2023/03/04 06:39:32;;;;;;;66.20;28.73;;;-1.50;99.90;;;;;;5135217;27;20023;-72
2023/03/04 06:41:58;;;;;;;62.88;26.98;;;-1.30;99.90;;;;;;5155089;27;20380;-72
2023/03/04 06:44:23;;;;;;;60.58;25.48;;;-1.30;99.90;;;;;;5143245;27;20626;-70
2023/03/04 06:46:49;;;;;;;61.92;26.40;;;-1.10;99.90;;;;;;5117109;27;20062;-71
2023/03/04 06:49:15;;;;;;;60.65;26.55;;;-1.10;99.90;;;;;;5118754;27;20039;-70
2023/03/04 06:51:40;;;;;;;60.10;25.58;;;-1.10;99.90;;;;;;5114512;27;20043;-70
2023/03/04 06:54:06;;;;;;;60.80;26.73;;;-1.00;99.90;;;;;;5115873;27;20031;-74
2023/03/04 06:56:31;;;;;;;61.70;25.75;;;-0.90;99.90;;;;;;5126876;27;20064;-71
2023/03/04 06:58:57;;;;;;;65.22;25.27;;;-0.90;99.90;;;;;;5123846;27;20046;-69
2023/03/04 07:01:28;;;;;;;57.00;25.77;;;-0.80;99.90;;;;;;5122652;27;20023;-70
2023/03/04 07:03:55;;;;;;;55.78;24.98;;;-0.70;99.90;;;;;;5101881;27;20029;-71
2023/03/04 07:06:23;;;;;;;54.45;25.80;;;-0.60;99.90;;;;;;5107701;27;20848;-71
2023/03/04 07:08:49;;;;;;;55.90;24.52;;;-0.60;99.90;;;;;;5126603;27;20038;-72
2023/03/04 07:11:16;;;;;;;55.95;25.02;;;-0.50;99.90;;;;;;5123138;27;20476;-72
2023/03/04 07:13:41;;;;;;;57.60;25.63;;;-0.40;99.90;;;;;;5123081;27;20032;-71
2023/03/04 07:16:09;;;;;;;51.40;24.60;;;;;;;;;;5122348;27;20023;-71
2023/03/04 07:18:37;;;;;;;47.22;21.80;;;;;;;;;;5124698;27;20027;-72
2023/03/04 07:21:05;;;;;;;55.42;24.05;;;;;;;;;;5122494;27;20038;-73
2023/03/04 07:23:32;;;;;;;53.00;24.02;;;;;;;;;;5121665;27;20027;-72
2023/03/04 07:25:59;;;;;;;52.55;23.25;;;;;;;;;;5123114;27;20023;-71
2023/03/04 07:28:26;;;;;;;47.95;21.95;;;;;;;;;;5120703;27;20467;-69
2023/03/04 07:30:54;;;;;;;63.30;25.33;;;;;;;;;;5121439;27;20073;-72
2023/03/04 07:33:23;;;;;;;58.70;24.52;;;;;;;;;;5124125;27;20765;-70
2023/03/04 07:35:50;;;;;;;57.03;23.48;;;;;;;;;;5126151;27;20011;-71
2023/03/04 07:38:17;;;;;;;51.22;24.30;;;;;;;;;;5122689;27;20085;-71
2023/03/04 07:40:46;;;;;;;54.15;23.45;;;;;;;;;;5124434;27;20034;-69
2023/03/04 07:43:14;;;;;;;50.88;22.95;;;;;;;;;;5120632;27;20019;-70
2023/03/04 07:45:43;;;;;;;47.25;21.80;;;;;;;;;;5123185;27;20103;-71
2023/03/04 07:48:11;;;;;;;41.40;20.75;;;;;;;;;;5126276;27;21571;-70
2023/03/04 07:50:37;;;;;;;47.88;23.30;;;;;;;;;;5129746;27;20023;-70
2023/03/04 07:53:03;;;;;;;48.22;21.83;;;;;;;;;;5128418;27;20084;-72
2023/03/04 07:55:30;;;;;;;46.78;22.20;;;;;;;;;;5113655;27;20031;-71
2023/03/04 07:57:56;;;;;;;42.45;19.92;;;;;;;;;;5132702;27;20043;-71
2023/03/04 08:00:22;;;;;;;45.83;20.40;;;;;;;;;;5124273;27;20023;-71
2023/03/04 08:02:48;;;;;;;38.95;20.48;;;;;;;;;;5133323;27;20038;-71
2023/03/04 08:05:14;;;;;;;45.92;22.55;;;;;;;;;;5129425;27;20022;-71
2023/03/04 08:07:40;;;;;;;40.65;20.08;;;;;;;;;;5132948;27;20034;-71
2023/03/04 08:10:07;;;;;;;42.75;20.70;;;;;;;;;;5125978;27;20054;-71
2023/03/04 08:12:33;;;;;;;39.65;19.33;;;;;;;;;;5114034;27;20105;-71
2023/03/04 08:14:59;;;;;;;39.63;19.55;;;;;;;;;;5129797;27;20382;-71
2023/03/04 08:17:25;;;;;;;46.45;22.88;;;;;;;;;;5131440;27;20143;-70
2023/03/04 08:19:51;;;;;;;52.42;24.02;;;;;;;;;;5126361;27;20023;-73
2023/03/04 08:22:17;;;;;;;41.60;20.83;;;;;;;;;;5124874;27;20031;-70
2023/03/04 08:24:43;;;;;;;47.05;21.88;;;;;;;;;;5130985;27;20028;-80
2023/03/04 08:27:09;;;;;;;45.78;21.27;;;;;;;;;;5130846;27;20019;-83
2023/03/04 08:29:35;;;;;;;48.97;21.45;;;;;;;;;;5132767;27;20076;-80
2023/03/04 08:32:01;;;;;;;38.85;19.63;;;;;;;;;;5122676;27;20256;-74
2023/03/04 08:34:27;;;;;;;40.63;20.48;;;;;;;;;;5129990;27;20019;-75
2023/03/04 08:36:54;;;;;;;42.65;20.15;;;;;;;;;;5132921;27;20469;-83
2023/03/04 08:39:20;;;;;;;42.03;18.92;;;;;;;;;;5127783;27;20079;-75
2023/03/04 08:41:47;;;;;;;41.35;20.25;;;;;;;;;;5132719;27;20473;-75
2023/03/04 08:44:13;;;;;;;41.17;19.00;;;;;;;;;;5130630;27;20023;-73
2023/03/04 08:46:40;;;;;;;39.78;19.35;;;;;;;;;;5123200;27;20019;-75
2023/03/04 08:49:06;;;;;;;43.63;19.75;;;;;;;;;;5130040;27;20078;-75
2023/03/04 08:51:34;;;;;;;40.92;19.25;;;;;;;;;;5132387;27;20046;-75
2023/03/04 08:54:00;;;;;;;47.20;22.42;;;;;;;;;;5123407;27;20084;-75
2023/03/04 08:56:26;;;;;;;42.78;20.48;;;;;;;;;;5120367;27;20019;-75
2023/03/04 08:58:52;;;;;;;47.40;21.63;;;;;;;;;;5112181;27;20031;-75
2023/03/04 09:01:19;;;;;;;47.10;21.50;;;;;;;;;;5130539;27;20027;-75
2023/03/04 09:03:45;;;;;;;48.92;21.48;;;;;;;;;;5118037;27;20103;-75
2023/03/04 09:06:13;;;;;;;47.28;21.45;;;;;;;;;;5111233;27;20034;-77
2023/03/04 09:08:39;;;;;;;42.63;20.77;;;;;;;;;;5113679;27;20052;-77
2023/03/04 09:11:06;;;;;;;47.83;21.98;;;;;;;;;;5097788;27;20031;-77
2023/03/04 09:13:32;;;;;;;43.58;21.15;;;;;;;;;;5121110;27;20362;-77
2023/03/04 09:15:58;;;;;;;46.72;21.65;;;;;;;;;;5111547;28;20023;-77
2023/03/04 09:18:24;;;;;;;42.42;19.55;;;;;;;;;;5111271;27;20209;-74
2023/03/04 09:20:51;;;;;;;46.88;21.27;;;;;;;;;;5126408;27;20027;-74
2023/03/04 09:23:17;;;;;;;39.17;20.15;;;;;;;;;;5114384;27;20034;-76
2023/03/04 09:25:45;;;;;;;40.22;20.02;;;;;;;;;;5128348;27;20027;-73
2023/03/04 09:28:11;;;;;;;40.40;20.02;;;;;;;;;;5122807;27;20055;-72
2023/03/04 09:30:37;;;;;;;42.08;21.25;;;;;;;;;;5131070;27;20504;-81
2023/03/04 09:33:03;;;;;;;43.05;21.00;;;;;;;;;;5094538;28;20084;-76
2023/03/04 09:35:30;;;;;;;42.60;20.65;;;;;;;;;;5111693;28;20107;-78
2023/03/04 09:37:56;;;;;;;41.63;20.55;;;;;;;;;;5119274;27;20167;-71
2023/03/04 09:40:24;;;;;;;45.13;20.42;;;;;;;;;;5129083;27;20027;-69
2023/03/04 09:42:52;;;;;;;37.08;18.90;;;;;;;;;;5120594;27;20421;-72
2023/03/04 09:45:20;;;;;;;37.95;19.55;;;;;;;;;;5114902;27;20541;-73
2023/03/04 09:47:47;;;;;;;35.88;19.42;;;;;;;;;;5122967;28;20028;-75
2023/03/04 09:50:13;;;;;;;40.50;20.65;;;;;;;;;;5122503;28;20023;-74
2023/03/04 09:52:48;;;;;;;38.78;19.58;;;;;;;;;;5125483;28;20027;-75
2023/03/04 09:55:17;;;;;;;35.08;18.15;;;;;;;;;;5111695;28;20373;-75
2023/03/04 09:57:56;;;;;;;40.33;20.35;;;;;;;;;;5115091;28;20121;-71
2023/03/04 10:00:22;;;;;;;37.42;19.80;;;;;;;;;;5121732;28;20023;-71
2023/03/04 10:03:11;;;;;;;39.17;20.15;;;;;;;;;;5125859;28;20309;-72
2023/03/04 10:05:39;;;;;;;38.78;19.40;;;;;;;;;;5118598;28;20027;-71
2023/03/04 10:08:25;;;;;;;39.85;19.25;;;;;;;;;;5119898;27;20046;-71
2023/03/04 10:10:52;;;;;;;39.00;20.70;;;;;;;;;;5126274;27;20031;-70
2023/03/04 10:13:21;;;;;;;35.38;18.88;;;;;;;;;;5124881;27;20034;-70
2023/03/04 10:15:50;;;;;;;38.03;20.15;;;3.10;99.90;;;;;;5128050;27;20027;-70
2023/03/04 10:18:24;;;;;;;38.55;19.58;;;3.20;99.90;;;;;;5123960;27;20039;-71
2023/03/04 10:21:00;;;;;;;37.95;19.90;;;3.30;99.90;;;;;;5125041;27;20019;-71
2023/03/04 10:23:30;;;;;;;35.00;20.13;;;3.50;99.90;;;;;;5124881;27;20035;-76
2023/03/04 10:26:00;;;;;;;35.50;20.17;;;3.60;99.90;;;;;;5132921;27;20473;-75
2023/03/04 10:28:29;;;;;;;37.08;21.40;;;3.70;99.90;;;;;;5127406;27;20072;-77
2023/03/04 10:31:05;;;;;;;42.67;23.63;;;3.70;99.90;;;;;;5122962;27;20019;-77
2023/03/04 10:33:37;;;;;;;40.63;21.90;;;3.70;99.90;;;;;;5125565;27;20477;-77
2023/03/04 10:36:10;;;;;;;43.20;22.88;;;3.60;99.90;;;;;;5124609;27;20075;-69
2023/03/04 10:38:39;;;;;;;43.55;23.63;;;3.60;99.90;;;;;;5131347;27;20042;-71
2023/03/04 10:41:21;;;;;;;38.00;22.10;;;3.60;99.90;;;;;;5129904;27;20028;-69
2023/03/04 10:44:08;;;;;;;44.25;23.50;;;3.60;99.90;;;;;;5115193;27;20038;-70
2023/03/04 10:46:38;;;;;;;42.35;23.00;;;3.60;99.90;;;;;;5122311;27;20074;-71
2023/03/04 10:49:03;;;;;;;41.58;23.38;;;3.60;99.90;;;;;;5133011;27;20483;-70
2023/03/04 10:51:30;;;;;;;43.50;25.17;;;3.60;99.90;;;;;;5123432;27;20023;-69
2023/03/04 10:54:19;;;;;;;45.28;25.27;;;3.70;99.90;;;;;;5123036;27;20484;-71
2023/03/04 10:57:03;;;;;;;45.28;24.90;;;3.60;99.90;;;;;;5125420;27;20034;-71
2023/03/04 10:59:37;;;;;;;45.55;25.05;;;3.70;99.90;;;;;;5119464;27;20130;-71
2023/03/04 11:02:29;;;;;;;47.70;25.08;;;3.70;99.90;;;;;;5114704;27;20024;-71
2023/03/04 11:05:04;;;;;;;46.05;25.25;;;3.80;99.90;;;;;;5125673;27;20071;-72
2023/03/04 11:07:29;;;;;;;49.05;26.52;;;3.90;99.90;;;;;;5125201;27;20027;-71
2023/03/04 11:10:05;;;;;;;49.00;26.88;;;3.90;99.90;;;;;;5115403;27;20051;-72
2023/03/04 11:12:33;;;;;;;48.90;25.15;;;4.00;99.90;;;;;;5115858;27;20444;-72
2023/03/04 11:15:00;;;;;;;50.22;27.80;;;3.90;99.90;;;;;;5118448;27;20055;-72
2023/03/04 11:17:44;;;;;;;55.28;29.60;;;3.70;99.90;;;;;;5113192;27;20040;-72
2023/03/04 11:20:13;;;;;;;52.88;29.20;;;3.70;99.90;;;;;;5122581;27;20139;-71
2023/03/04 11:22:42;;;;;;;55.10;30.10;;;3.60;99.90;;;;;;5126133;27;20019;-71
2023/03/04 11:25:29;;;;;;;51.63;27.60;;;3.60;99.90;;;;;;5129213;27;20053;-74
2023/03/04 11:27:59;;;;;;;55.20;28.85;;;3.60;99.90;;;;;;5122989;27;20046;-72
2023/03/04 11:30:27;;;;;;;55.30;28.83;;;3.60;99.90;;;;;;5118413;27;20374;-70
2023/03/04 11:33:01;;;;;;;51.42;29.85;;;3.60;99.90;;;;;;5119830;27;20024;-72
2023/03/04 11:35:53;;;;;;;52.78;28.85;;;3.60;99.90;;;;;;5122035;27;20027;-70
2023/03/04 11:38:23;;;;;;;54.92;29.60;;;3.60;99.90;;;;;;5111967;27;20055;-74
2023/03/04 11:40:53;;;;;;;51.80;29.10;;;3.50;99.90;;;;;;5131375;27;20035;-72
2023/03/04 11:43:38;;;;;;;61.17;31.20;;;3.60;99.90;;;;;;5127765;27;20735;-74
2023/03/04 11:46:40;;;;;;;60.67;33.15;;;3.60;99.90;;;;;;5103550;27;20159;-76
2023/03/04 11:49:20;;;;;;;62.33;31.80;;;3.60;99.90;;;;;;5130382;27;20031;-77
2023/03/04 11:52:12;;;;;;;58.65;31.50;;;3.50;99.90;;;;;;5131514;27;20354;-77
2023/03/04 11:54:45;;;;;;;58.08;32.28;;;3.50;99.90;;;;;;5112160;27;20091;-77
2023/03/04 11:57:29;;;;;;;60.28;32.40;;;3.60;99.90;;;;;;5112306;27;20505;-77
2023/03/04 12:00:06;;;;;;;61.83;33.05;;;3.60;99.90;;;;;;5111008;27;20038;-79
2023/03/04 12:02:50;;;;;;;62.08;32.65;;;3.60;99.90;;;;;;5130509;27;20027;-75
2023/03/04 12:05:18;;;;;;;71.57;34.90;;;3.50;99.90;;;;;;5116730;27;20422;-76
2023/03/04 12:07:57;;;;;;;65.45;34.53;;;3.50;99.90;;;;;;5133530;27;20556;-77
2023/03/04 12:10:47;;;;;;;66.07;34.65;;;3.50;99.90;;;;;;5136972;27;20023;-80
2023/03/04 12:13:13;;;;;;;64.75;33.50;;;3.50;99.90;;;;;;5130429;27;20027;-76
2023/03/04 12:15:47;;;;;;;67.78;34.83;;;3.50;99.90;;;;;;5124350;27;20034;-76
2023/03/04 12:18:37;;;;;;;63.83;34.67;;;3.60;99.90;;;;;;5131626;27;20038;-76
2023/03/04 12:21:16;;;;;;;60.92;32.55;;;3.60;99.90;;;;;;5118080;27;20031;-83
2023/03/04 12:24:02;;;;;;;63.53;34.30;;;3.60;99.90;;;;;;5127146;27;20477;-76
2023/03/04 12:26:42;;;;;;;57.42;32.28;;;3.70;99.90;;;;;;5129935;27;20473;-76
2023/03/04 12:29:24;;;;;;;65.57;33.30;;;3.70;99.90;;;;;;5128337;27;20039;-77
2023/03/04 12:32:06;;;;;;;65.22;32.92;;;3.60;99.90;;;;;;5124733;27;20060;-72
2023/03/04 12:34:35;;;;;;;60.85;32.72;;;3.60;99.90;;;;;;5132448;27;20396;-76
2023/03/04 12:37:12;;;;;;;66.45;35.03;;;3.70;99.90;;;;;;5128762;27;20076;-74
2023/03/04 12:39:56;;;;;;;61.42;33.25;;;3.70;99.90;;;;;;5124102;27;20433;-75
2023/03/04 12:42:38;;;;;;;66.18;33.20;;;3.60;99.90;;;;;;5123506;27;20027;-75
2023/03/04 12:45:24;;;;;;;56.25;31.48;;;3.60;99.90;;;;;;5130704;27;20058;-73
2023/03/04 12:48:15;;;;;;;59.28;32.75;;;3.70;99.90;;;;;;5131851;27;20376;-74
2023/03/04 12:51:00;;;;;;;68.05;35.15;;;3.70;99.90;;;;;;5126661;27;20076;-74
2023/03/04 12:53:47;;;;;;;68.38;34.40;;;3.70;99.90;;;;;;5116688;27;20015;-76
2023/03/04 12:56:27;;;;;;;62.88;33.80;;;3.60;99.90;;;;;;5120088;27;20035;-74
2023/03/04 12:58:54;;;;;;;64.38;34.88;;;3.50;99.90;;;;;;5131089;27;20039;-75
2023/03/04 13:01:20;;;;;;;66.28;35.55;;;3.40;99.90;;;;;;5130352;27;20099;-75
2023/03/04 13:04:10;;;;;;;66.43;33.80;;;3.50;99.90;;;;;;5128165;27;20446;-74
2023/03/04 13:06:57;;;;;;;63.15;34.30;;;3.50;99.90;;;;;;5128295;27;20397;-73
2023/03/04 13:09:27;;;;;;;69.50;36.70;;;3.50;99.90;;;;;;5128672;27;20115;-74
2023/03/04 13:12:03;;;;;;;67.07;34.75;;;3.60;99.90;;;;;;5130836;27;20083;-72
2023/03/04 13:14:31;;;;;;;68.30;35.80;;;3.60;99.90;;;;;;5125868;27;20027;-72
2023/03/04 13:17:00;;;;;;;65.15;35.22;;;3.60;99.90;;;;;;5132350;27;20476;-72